CDT,Max TemperatureF,Mean TemperatureF,Min TemperatureF,Max Dew PointF,MeanDew PointF,Min DewpointF,Max Humidity, Mean Humidity, Min Humidity, Max Sea Level PressureIn, Mean Sea Level PressureIn, Min Sea Level PressureIn, Max VisibilityMiles, Mean VisibilityMiles, Min VisibilityMiles, Max Wind SpeedMPH, Mean Wind SpeedMPH, Max Gust SpeedMPH,PrecipitationIn, CloudCover, Events, WindDirDegrees
2010-10-1,82,70,57,50,42,32,67,43,18,30.07,30.02,29.97,10,10,8,24,12,35,0.00,0,,6
2010-10-2,82,66,49,50,43,37,66,44,21,30.14,30.04,29.99,10,10,6,30,11,38,0.00,1,,357
2010-10-3,70,59,47,46,39,33,80,53,26,30.29,30.23,30.14,10,10,7,22,13,29,0.00,0,,11
2010-10-4,70,56,41,38,34,30,76,50,23,30.39,30.31,30.26,10,6,2,18,8,25,0.00,0,,18
2010-10-5,75,56,36,38,34,31,82,51,19,30.43,30.35,30.29,10,9,4,15,6,23,0.00,0,,13
2010-10-6,79,59,38,42,36,31,92,55,18,30.37,30.28,30.19,10,10,8,12,3,15,0.00,0,,342
2010-10-7,87,67,47,47,42,35,86,51,16,30.24,30.17,30.10,10,9,7,10,2,14,0.00,0,,307
2010-10-8,91,71,51,54,50,47,83,55,26,30.15,30.09,30.04,10,10,10,12,2,18,0.00,0,,319
2010-10-9,92,74,55,55,52,49,80,52,23,30.10,30.04,29.98,10,10,8,10,1,15,0.00,0,,259
2010-10-10,92,74,56,55,49,46,77,50,23,30.03,29.96,29.88,10,10,9,14,3,16,0.00,1,,239
2010-10-11,86,73,59,60,54,50,72,51,30,29.99,29.92,29.84,10,10,10,17,8,24,0.00,1,,235
2010-10-12,82,70,57,63,58,53,100,73,46,30.01,29.93,29.88,10,8,0,28,7,37,0.50,2,Rain-Thunderstorm,258
2010-10-13,82,69,56,60,56,54,93,66,39,30.16,30.06,30.00,10,10,5,20,8,23,0.00,0,,341
2010-10-14,75,60,45,57,42,32,84,53,22,30.26,30.18,30.13,10,10,10,17,8,25,0.00,0,,359
2010-10-15,84,65,45,43,40,38,82,51,20,30.16,30.10,30.03,10,10,9,17,8,23,0.00,0,,298
2010-10-16,82,63,43,43,38,35,83,51,18,30.22,30.16,30.12,10,10,10,12,3,15,0.00,0,,47
2010-10-17,85,64,42,43,37,34,76,46,16,30.19,30.11,30.03,10,10,10,8,1,12,0.00,0,,245
2010-10-18,85,68,51,51,48,37,71,50,29,30.06,29.98,29.91,10,10,10,14,5,18,0.00,0,,211
2010-10-19,78,68,57,61,57,52,100,73,46,30.02,29.97,29.93,10,8,2,21,7,25,0.06,3,Rain-Thunderstorm,294
2010-10-20,77,65,52,58,53,46,100,67,33,30.09,30.02,29.98,10,5,0,10,3,23,0.00,2,Fog,308
2010-10-21,84,66,48,57,49,42,100,62,24,30.11,30.05,30.01,10,8,0,13,2,16,0.00,0,Fog,308
2010-10-22,85,66,46,49,43,40,83,52,20,30.17,30.10,30.06,10,9,2,16,6,22,0.00,0,,135
2010-10-23,86,72,57,57,46,41,73,47,21,30.14,30.07,29.99,10,9,2,21,8,29,0.00,0,,173
2010-10-24,86,73,62,65,63,58,100,84,48,30.06,29.91,29.81,10,7,0,26,12,36,2.72,5,Fog-Rain-Thunderstorm,237
2010-10-25,85,73,60,70,63,57,97,73,48,29.91,29.71,29.55,10,10,6,28,17,39,0.08,3,Rain-Thunderstorm,192
2010-10-26,83,73,63,71,64,49,82,63,44,29.83,29.65,29.51,10,10,6,32,13,40,0.07,6,Rain,204
2010-10-27,85,72,58,66,59,45,97,71,45,30.12,29.94,29.85,10,10,10,24,5,30,T,4,Rain,54
2010-10-28,67,58,49,45,37,30,66,46,26,30.36,30.29,30.14,10,10,10,20,10,23,0.00,2,,340
2010-10-29,64,52,40,42,38,34,92,63,34,30.46,30.36,30.25,10,10,9,14,5,18,0.00,0,,14
2010-10-30,71,53,34,42,36,33,100,63,25,30.24,30.16,30.04,10,7,1,15,5,18,0.00,0,,199
2010-10-31,77,60,43,49,43,37,82,54,26,30.10,30.04,29.99,10,10,10,16,6,20,0.00,0,,180